LFMU/BZR METAR and TAF weather

Enter ICAO airport designator
Station Type Date Time Source
LFMU METAR 2020/01/28 21:00 UTC NOAA

LFMU 282100Z AUTO 26011KT CAVOK 11/06 Q1018


Station Type Date Time Source
LFMU Decoded METAR 2020/01/28 21:00 UTC NOAA

Beziers / Vias, France (LFMU) 43-19N 003-21E
Jan 28, 2020 - 04:00 PM EST / 2020.01.28 2100 UTC
Wind: from the W (260 degrees) at 13 MPH (11 KT):0
Visibility: greater than 7 mile(s):0
Temperature: 51 F (11 C)
Dew Point: 42 F (6 C)
Relative Humidity: 71%
Pressure (altimeter): 30.06 in. Hg (1018 hPa)
ob: LFMU 282100Z AUTO 26011KT CAVOK 11/06 Q1018
cycle: 21

Station Type Date Time Source
LFMU TAF 2020/01/28 19:38 UTC NOAA

TAF LFMU 281930Z 2819/2915 CNL

Example: see airport list